Time;durP1;ratioP1;P1;durP2;ratioP2;P2;SDS_P1;SDS_P2;PMS_P1;PMS_P2;Temp;Humidity;BMP_temperature;BMP_pressure;BME280_temperature;BME280_humidity;BME280_pressure;Samples;Min_cycle;Max_cycle;Signal;HPM_P1;HPM_P2
2023/09/06 00:00:29;;;;;;;;;;;;;;;;;;5073832;28;19924;-70
2023/09/06 00:02:56;;;;;;;;;;;;;;;;;;5074329;28;19956;-70
2023/09/06 00:05:23;;;;;;;;;;;;;;;;;;5074684;28;20368;-70
2023/09/06 00:07:50;;;;;;;;;;;;;;;;;;5074514;28;19970;-70
2023/09/06 00:10:17;;;;;;;;;;;;;;;;;;5074998;28;19970;-69
2023/09/06 00:12:45;;;;;;;;;;;;;;;;;;5074326;28;19971;-69
2023/09/06 00:15:12;;;;;;;;;;;;;;;;;;5073965;28;20430;-70
2023/09/06 00:17:41;;;;;;;;;;;;;;;;;;5074221;28;19924;-70
2023/09/06 00:20:16;;;;;;;;;;;;;;;;;;5073824;28;19924;-70
2023/09/06 00:22:43;;;;;;;;;;;;;;;;;;5073754;28;19975;-69
2023/09/06 00:25:10;;;;;;;;;;;;;;;;;;5073099;28;19924;-69
2023/09/06 00:27:37;;;;;;;;;;;;;;;;;;5073195;28;19924;-70
2023/09/06 00:30:04;;;;;;;;;;;;;;;;;;5073119;28;19977;-70
2023/09/06 00:32:31;;;;;;;;;;;;;;;;;;5070619;28;20281;-70
2023/09/06 00:34:58;;;;;;;;;;;;;;;;;;5073212;28;19925;-70
2023/09/06 00:37:25;;;;;;;;;;;;;;;;;;5073473;28;19928;-70
2023/09/06 00:39:52;;;;;;;;;;;;;;;;;;5074361;28;20009;-69
2023/09/06 00:42:24;;;;;;;;;;;;;;;;;;5073730;28;19925;-69
2023/09/06 00:44:51;;;;;;;;;;;;;;;;;;5073455;28;20437;-69
2023/09/06 00:47:18;;;;;;;;;;;;;;;;;;5073292;28;20374;-70
2023/09/06 00:49:45;;;;;;;;;;;;;;;;;;5073238;28;19925;-69
2023/09/06 00:52:12;;;;;;;;;;;;;;;;;;5073465;28;20448;-69
2023/09/06 00:54:39;;;;;;;;;;;;;;;;;;5073891;28;19970;-69
2023/09/06 00:57:06;;;;;;;;;;;;;;;;;;5073644;28;20415;-69
2023/09/06 00:59:33;;;;;;;;;;;;;;;;;;5073264;28;19977;-70
2023/09/06 01:02:01;;;;;;;;;;;;;;;;;;5073830;28;19924;-70
2023/09/06 01:04:28;;;;;;;;;;;;;;;;;;5066991;28;19932;-70
2023/09/06 01:06:57;;;;;;;;;;;;;;;;;;5073981;28;19928;-69
2023/09/06 01:09:24;;;;;;;;;;;;;;;;;;5072961;28;20432;-69
2023/09/06 01:11:51;;;;;;;;;;;;;;;;;;5072435;28;20299;-70
2023/09/06 01:14:18;;;;;;;;;;;;;;;;;;5071735;28;19963;-70
2023/09/06 01:16:45;;;;;;;;;;;;;;;;;;5073280;28;20366;-70
2023/09/06 01:19:11;;;;;;;;;;;;;;;;;;5070878;28;20277;-70
2023/09/06 01:21:38;;;;;;;;;;;;;;;;;;5073285;28;19924;-70
2023/09/06 01:24:06;;;;;;;;;;;;;;;;;;5068307;28;19967;-70
2023/09/06 01:26:33;;;;;;;;;;;;;;;;;;5072492;28;19924;-70
2023/09/06 01:29:00;;;;;;;;;;;;;;;;;;5070323;28;19933;-70
2023/09/06 01:31:27;;;;;;;;;;;;;;;;;;5070744;28;19960;-70
2023/09/06 01:33:54;;;;;;;;;;;;;;;;;;5072247;28;19924;-70
2023/09/06 01:36:21;;;;;;;;;;;;;;;;;;5073173;28;19928;-70
2023/09/06 01:38:51;;;;;;;;;;;;;;;;;;5070743;28;19924;-70
2023/09/06 01:41:18;;;;;;;;;;;;;;;;;;5072484;28;19931;-70
2023/09/06 01:43:45;;;;;;;;;;;;;;;;;;5071595;28;19929;-70
2023/09/06 01:46:12;;;;;;;;;;;;;;;;;;5072178;28;19970;-70
2023/09/06 01:48:39;;;;;;;;;;;;;;;;;;5072356;28;20338;-70
2023/09/06 01:51:08;;;;;;;;;;;;;;;;;;5072447;28;19925;-70
2023/09/06 01:53:35;;;;;;;;;;;;;;;;;;5072209;28;19931;-70
2023/09/06 01:56:02;;;;;;;;;;;;;;;;;;5069319;28;19982;-70
2023/09/06 01:58:32;;;;;;;;;;;;;;;;;;5071979;28;19936;-70
2023/09/06 02:00:59;;;;;;;;;;;;;;;;;;5072164;28;19928;-70
2023/09/06 02:03:27;;;;;;;;;;;;;;;;;;5073847;28;19972;-70
2023/09/06 02:05:54;;;;;;;;;;;;;;;;;;5072487;28;19935;-70
2023/09/06 02:08:21;;;;;;;;;;;;;;;;;;5072065;28;19924;-70
2023/09/06 02:10:48;;;;;;;;;;;;;;;;;;5070892;28;20062;-70
2023/09/06 02:13:15;;;;;;;;;;;;;;;;;;5069005;28;20333;-70
2023/09/06 02:15:42;;;;;;;;;;;;;;;;;;5071550;28;19982;-70
2023/09/06 02:18:10;;;;;;;;;;;;;;;;;;5071776;28;19925;-70
2023/09/06 02:20:39;;;;;;;;;;;;;;;;;;5072182;28;19925;-70
2023/09/06 02:23:06;;;;;;;;;;;;;;;;;;5072312;28;19931;-70
2023/09/06 02:25:33;;;;;;;;;;;;;;;;;;5071578;28;20353;-70
2023/09/06 02:28:03;;;;;;;;;;;;;;;;;;5072217;28;19926;-69
2023/09/06 02:30:30;;;;;;;;;;;;;;;;;;5070854;28;20391;-69
2023/09/06 02:32:57;;;;;;;;;;;;;;;;;;5071691;28;19985;-69
2023/09/06 02:35:24;;;;;;;;;;;;;;;;;;5070448;28;19954;-69
2023/09/06 02:37:51;;;;;;;;;;;;;;;;;;5071610;28;19928;-70
2023/09/06 02:40:20;;;;;;;;;;;;;;;;;;5071932;28;20326;-69
2023/09/06 02:42:49;;;;;;;;;;;;;;;;;;5071514;28;20023;-71
2023/09/06 02:45:16;;;;;;;;;;;;;;;;;;5068493;28;19951;-71
2023/09/06 02:47:48;;;;;;;;;;;;;;;;;;5070588;28;19929;-69
2023/09/06 02:50:14;;;;;;;;;;;;;;;;;;5070970;28;19924;-70
2023/09/06 02:52:44;;;;;;;;;;;;;;;;;;5071672;28;20006;-69
2023/09/06 02:55:13;;;;;;;;;;;;;;;;;;5071438;28;20050;-69
2023/09/06 02:57:40;;;;;;;;;;;;;;;;;;5071844;28;19924;-69
2023/09/06 03:00:18;;;;;;;;;;;;;;;;;;5071119;28;19931;-69
2023/09/06 03:02:45;;;;;;;;;;;;;;;;;;5075858;28;19990;-69
2023/09/06 03:05:17;;;;;;;;;;;;;;;;;;5075466;28;20356;-69
2023/09/06 03:07:44;;;;;;;;;;;;;;;;;;5071693;28;19928;-69
2023/09/06 03:10:11;;;;;;;;;;;;;;;;;;5074898;28;19978;-69
2023/09/06 03:12:40;;;;;;;;;;;;;;;;;;5075941;28;19928;-69
2023/09/06 03:15:08;;;;;;;;;;;;;;;;;;5073432;28;20022;-69
2023/09/06 03:17:36;;;;;;;;;;;;;;;;;;5074648;28;19959;-69
2023/09/06 03:20:18;;;;;;;;;;;;;;;;;;5075160;28;19925;-69
2023/09/06 03:22:46;;;;;;;;;;;;;;;;;;5075165;28;19924;-69
2023/09/06 03:25:14;;;;;;;;;;;;;;;;;;5074627;28;19924;-70
2023/09/06 03:27:41;;;;;;;;;;;;;;;;;;5066064;28;19931;-69
2023/09/06 03:30:08;;;;;;;;;;;;;;;;;;5073774;28;19928;-68
2023/09/06 03:32:36;;;;;;;;;;;;;;;;;;5075354;28;19971;-69
2023/09/06 03:35:04;;;;;;;;;;;;;;;;;;5074898;28;19924;-69
2023/09/06 03:37:31;;;;;;;;;;;;;;;;;;5075395;28;19934;-69
2023/09/06 03:39:58;;;;;;;;;;;;;;;;;;5074990;28;19970;-68
2023/09/06 03:42:26;;;;;;;;;;;;;;;;;;5074587;28;20376;-68
2023/09/06 03:44:53;;;;;;;;;;;;;;;;;;5073726;28;19928;-68
2023/09/06 03:47:20;;;;;;;;;;;;;;;;;;5069680;28;19925;-69
2023/09/06 03:49:47;;;;;;;;;;;;;;;;;;5069033;28;19928;-69
2023/09/06 03:52:16;;;;;;;;;;;;;;;;;;5074335;28;20379;-69
2023/09/06 03:54:43;;;;;;;;;;;;;;;;;;5074805;28;20363;-70
2023/09/06 03:57:12;;;;;;;;;;;;;;;;;;5075027;28;19928;-69
2023/09/06 03:59:40;;;;;;;;;;;;;;;;;;5074726;28;20002;-69
2023/09/06 04:02:13;;;;;;;;;;;;;;;;;;5072209;28;19931;-70
2023/09/06 04:04:40;;;;;;;;;;;;;;;;;;5073985;28;19944;-69
2023/09/06 04:07:07;;;;;;;;;;;;;;;;;;5073275;28;19968;-69
2023/09/06 04:09:37;;;;;;;;;;;;;;;;;;5074561;28;20395;-70
2023/09/06 04:12:05;;;;;;;;;;;;;;;;;;5071887;28;20023;-69
2023/09/06 04:14:35;;;;;;;;;;;;;;;;;;5074139;28;19925;-69
2023/09/06 04:17:02;;;;;;;;;;;;;;;;;;5073070;28;19928;-69
2023/09/06 04:19:29;;;;;;;;;;;;;;;;;;5074198;28;19924;-72
2023/09/06 04:21:56;;;;;;;;;;;;;;;;;;5073833;28;20070;-69
2023/09/06 04:24:23;;;;;;;;;;;;;;;;;;5073776;28;20087;-69
2023/09/06 04:26:51;;;;;;;;;;;;;;;;;;5074218;28;20338;-69
2023/09/06 04:29:18;;;;;;;;;;;;;;;;;;5074523;28;19932;-69
2023/09/06 04:31:45;;;;;;;;;;;;;;;;;;5072477;28;20352;-69
2023/09/06 04:34:12;;;;;;;;;;;;;;;;;;5074364;28;19977;-69
2023/09/06 04:36:39;;;;;;;;;;;;;;;;;;5073725;28;19960;-69
2023/09/06 04:39:08;;;;;;;;;;;;;;;;;;5074351;28;20039;-69
2023/09/06 04:41:36;;;;;;;;;;;;;;;;;;5073790;28;20470;-70
2023/09/06 04:44:03;;;;;;;;;;;;;;;;;;5070442;28;19925;-70
2023/09/06 04:46:30;;;;;;;;;;;;;;;;;;5073376;28;19942;-69
2023/09/06 04:48:57;;;;;;;;;;;;;;;;;;5073845;28;19925;-69
2023/09/06 04:51:24;;;;;;;;;;;;;;;;;;5073494;28;19928;-69
2023/09/06 04:53:51;;;;;;;;;;;;;;;;;;5073090;28;20019;-69
2023/09/06 04:56:19;;;;;;;;;;;;;;;;;;5073164;28;19925;-69
2023/09/06 04:58:46;;;;;;;;;;;;;;;;;;5072976;28;20345;-69
2023/09/06 05:01:13;;;;;;;;;;;;;;;;;;5072347;28;19978;-69
2023/09/06 05:03:40;;;;;;;;;;;;;;;;;;5069824;28;20010;-67
2023/09/06 05:06:07;;;;;;;;;;;;;;;;;;5073472;28;19979;-69
2023/09/06 05:08:34;;;;;;;;;;;;;;;;;;5070314;28;19928;-69
2023/09/06 05:11:03;;;;;;;;;;;;;;;;;;5071359;28;20390;-69
2023/09/06 05:13:30;;;;;;;;;;;;;;;;;;5070845;28;19925;-69
2023/09/06 05:15:57;;;;;;;;;;;;;;;;;;5072521;28;19931;-68
2023/09/06 05:18:24;;;;;;;;;;;;;;;;;;5070723;28;20496;-69
2023/09/06 05:20:51;;;;;;;;;;;;;;;;;;5073117;28;19924;-69
2023/09/06 05:23:18;;;;;;;;;;;;;;;;;;5066694;28;19989;-70
2023/09/06 05:25:46;;;;;;;;;;;;;;;;;;5070120;28;19929;-69
2023/09/06 05:28:15;;;;;;;;;;;;;;;;;;5071991;28;20311;-68
2023/09/06 05:30:42;;;;;;;;;;;;;;;;;;5072208;28;20394;-69
2023/09/06 05:33:09;;;;;;;;;;;;;;;;;;5072500;28;20364;-69
2023/09/06 05:35:36;;;;;;;;;;;;;;;;;;5054832;28;19924;-69
2023/09/06 05:38:04;;;;;;;;;;;;;;;;;;5071858;28;19924;-69
2023/09/06 05:40:33;;;;;;;;;;;;;;;;;;5071522;28;20011;-70
2023/09/06 05:43:00;;;;;;;;;;;;;;;;;;5072992;28;19924;-70
2023/09/06 05:45:27;;;;;;;;;;;;;;;;;;5065908;28;19925;-69
2023/09/06 05:47:54;;;;;;;;;;;;;;;;;;5068828;28;20016;-68
2023/09/06 05:50:21;;;;;;;;;;;;;;;;;;5072988;28;19925;-70
2023/09/06 05:52:48;;;;;;;;;;;;;;;;;;5061032;28;19929;-70
2023/09/06 05:55:15;;;;;;;;;;;;;;;;;;5059915;28;19924;-67
2023/09/06 05:57:42;;;;;;;;;;;;;;;;;;5064193;28;19979;-67
2023/09/06 06:00:15;;;;;;;;;;;;;;;;;;5069849;28;20302;-70
2023/09/06 06:02:42;;;;;;;;;;;;;;;;;;5062510;28;19925;-69
2023/09/06 06:05:09;;;;;;;;;;;;;;;;;;5053884;28;19933;-69
2023/09/06 06:07:36;;;;;;;;;;;;;;;;;;5062536;28;20015;-67
2023/09/06 06:10:04;;;;;;;;;;;;;;;;;;5068108;28;19925;-69
2023/09/06 06:12:32;;;;;;;;;;;;;;;;;;5071334;28;20025;-69
2023/09/06 06:15:00;;;;;;;;;;;;;;;;;;5067869;28;19932;-70
2023/09/06 06:17:27;;;;;;;;;;;;;;;;;;5066900;28;20295;-70
2023/09/06 06:19:54;;;;;;;;;;;;;;;;;;5064783;28;19924;-69
2023/09/06 06:22:21;;;;;;;;;;;;;;;;;;5067261;28;19925;-69
2023/09/06 06:24:50;;;;;;;;;;;;;;;;;;5065684;28;20031;-68
2023/09/06 06:27:17;;;;;;;;;;;;;;;;;;5069959;28;19933;-69
2023/09/06 06:29:44;;;;;;;;;;;;;;;;;;5071118;28;19978;-69
2023/09/06 06:32:11;;;;;;;;;;;;;;;;;;5067824;28;19925;-69
2023/09/06 06:34:39;;;;;;;;;;;;;;;;;;5064102;28;19925;-69
2023/09/06 06:37:06;;;;;;;;;;;;;;;;;;5071467;28;20411;-69
2023/09/06 06:39:33;;;;;;;;;;;;;;;;;;5063671;28;20023;-69
2023/09/06 06:42:00;;;;;;;;;;;;;;;;;;5063472;28;19986;-69
2023/09/06 06:44:27;;;;;;;;;;;;;;;;;;5057282;28;19925;-69
2023/09/06 06:46:54;;;;;;;;;;;;;;;;;;5066392;28;19925;-69
2023/09/06 06:49:21;;;;;;;;;;;;;;;;;;5051591;28;19925;-69
2023/09/06 06:51:48;;;;;;;;;;;;;;;;;;5067452;28;19978;-68
2023/09/06 06:54:15;;;;;;;;;;;;;;;;;;5066163;28;19931;-68
2023/09/06 06:56:42;;;;;;;;;;;;;;;;;;5070196;28;19986;-68
2023/09/06 06:59:09;;;;;;;;;;;;;;;;;;5066404;28;19928;-68
2023/09/06 07:01:36;;;;;;;;;;;;;;;;;;5057705;28;20020;-68
2023/09/06 07:04:04;;;;;;;;;;;;;;;;;;5065371;28;20471;-69
2023/09/06 07:06:31;;;;;;;;;;;;;;;;;;5071727;28;20003;-68
2023/09/06 07:08:59;;;;;;;;;;;;;;;;;;5068912;28;19931;-68
2023/09/06 07:11:26;;;;;;;;;;;;;;;;;;5070564;28;19951;-68
2023/09/06 07:13:53;;;;;;;;;;;;;;;;;;5068114;28;19925;-68
2023/09/06 07:16:20;;;;;;;;;;;;;;;;;;5068863;28;19971;-68
2023/09/06 07:18:47;;;;;;;;;;;;;;;;;;5068536;28;19970;-68
2023/09/06 07:21:18;;;;;;;;;;;;;;;;;;5053588;28;20312;-68
2023/09/06 07:23:45;;;;;;;;;;;;;;;;;;5056141;28;19928;-77
2023/09/06 07:26:12;;;;;;;;;;;;;;;;;;5057000;28;19931;-68
2023/09/06 07:28:40;;;;;;;;;;;;;;;;;;5060549;28;20019;-68
2023/09/06 07:31:07;;;;;;;;;;;;;;;;;;5065905;28;20040;-68
2023/09/06 07:33:34;;;;;;;;;;;;;;;;;;5067655;28;19924;-69
2023/09/06 07:36:01;;;;;;;;;;;;;;;;;;5069733;28;20019;-69
2023/09/06 07:38:28;;;;;;;;;;;;;;;;;;5066043;28;19974;-69
2023/09/06 07:40:55;;;;;;;;;;;;;;;;;;5065924;28;19924;-69
2023/09/06 07:43:22;;;;;;;;;;;;;;;;;;5068970;28;19928;-70
2023/09/06 07:45:49;;;;;;;;;;;;;;;;;;5068965;28;19985;-69
2023/09/06 07:48:16;;;;;;;;;;;;;;;;;;5080434;28;19935;-69
2023/09/06 07:50:43;;;;;;;;;;;;;;;;;;5068322;28;20024;-69
2023/09/06 07:53:10;;;;;;;;;;;;;;;;;;5071847;28;20364;-69
2023/09/06 07:55:37;;;;;;;;;;;;;;;;;;5073916;28;19974;-69
2023/09/06 07:58:04;;;;;;;;;;;;;;;;;;5071184;28;19925;-68
2023/09/06 08:00:36;;;;;;;;;;;;;;;;;;5068791;28;20455;-69
2023/09/06 08:03:03;;;;;;;;;;;;;;;;;;5063067;28;19963;-69
2023/09/06 08:05:30;;;;;;;;;;;;;;;;;;5067767;28;20029;-69
2023/09/06 08:07:57;;;;;;;;;;;;;;;;;;5076481;28;19924;-69
2023/09/06 08:10:24;;;;;;;;;;;;;;;;;;5089210;28;19924;-72
2023/09/06 08:12:51;;;;;;;;;;;;;;;;;;5075165;28;19986;-72
2023/09/06 08:15:18;;;;;;;;;;;;;;;;;;5074493;28;19925;-71
2023/09/06 08:17:47;;;;;;;;;;;;;;;;;;5072068;28;20377;-72
2023/09/06 08:20:14;;;;;;;;;;;;;;;;;;5071036;28;19936;-71
2023/09/06 08:22:41;;;;;;;;;;;;;;;;;;5082666;28;19932;-71
2023/09/06 08:25:08;;;;;;;;;;;;;;;;;;5064503;28;19931;-72
2023/09/06 08:27:35;;;;;;;;;;;;;;;;;;5070996;28;20421;-72
2023/09/06 08:30:03;;;;;;;;;;;;;;;;;;5073039;28;19952;-71
2023/09/06 08:32:29;;;;;;;;;;;;;;;;;;5069073;28;19947;-70
2023/09/06 08:34:56;;;;;;;;;;;;;;;;;;5072262;28;19924;-72
2023/09/06 08:37:23;;;;;;;;;;;;;;;;;;5072578;28;20379;-71
2023/09/06 08:39:51;;;;;;;;;;;;;;;;;;5072675;28;19960;-71
2023/09/06 08:42:18;;;;;;;;;;;;;;;;;;5077287;28;19925;-71
2023/09/06 08:44:45;;;;;;;;;;;;;;;;;;5081579;28;19975;-71
2023/09/06 08:47:12;;;;;;;;;;;;;;;;;;5068493;28;19936;-72
2023/09/06 08:49:39;;;;;;;;;;;;;;;;;;5053639;28;19925;-72
2023/09/06 08:52:06;;;;;;;;;;;;;;;;;;5074326;28;19925;-73
2023/09/06 08:54:33;;;;;;;;;;;;;;;;;;5072900;28;20395;-73
2023/09/06 08:57:00;;;;;;;;;;;;;;;;;;5072559;28;19977;-73
2023/09/06 08:59:28;;;;;;;;;;;;;;;;;;5071322;28;20395;-72
2023/09/06 09:01:55;;;;;;;;;;;;;;;;;;5064528;28;20051;-73
2023/09/06 09:04:22;;;;;;;;;;;;;;;;;;5057577;28;19925;-73
2023/09/06 09:06:49;;;;;;;;;;;;;;;;;;5071239;28;19978;-73
2023/09/06 09:09:20;;;;;;;;;;;;;;;;;;5069974;28;19925;-72
2023/09/06 09:11:47;;;;;;;;;;;;;;;;;;5070059;28;20082;-70
2023/09/06 09:14:14;;;;;;;;;;;;;;;;;;5072898;28;19986;-71
2023/09/06 09:16:41;;;;;;;;;;;;;;;;;;5070410;28;19990;-71
2023/09/06 09:19:08;;;;;;;;;;;;;;;;;;5071470;28;19978;-72
2023/09/06 09:21:35;;;;;;;;;;;;;;;;;;5071047;28;19931;-72
2023/09/06 09:24:02;;;;;;;;;;;;;;;;;;5069041;28;20375;-72
2023/09/06 09:26:29;;;;;;;;;;;;;;;;;;5079019;28;19930;-72
2023/09/06 09:28:56;;;;;;;;;;;;;;;;;;5073751;28;19936;-73
2023/09/06 09:31:23;;;;;;;;;;;;;;;;;;5073420;28;19935;-74
2023/09/06 09:33:50;;;;;;;;;;;;;;;;;;5071425;28;20350;-75
2023/09/06 09:36:17;;;;;;;;;;;;;;;;;;5072743;28;19928;-76
2023/09/06 09:38:44;;;;;;;;;;;;;;;;;;5073620;28;19946;-76
2023/09/06 09:41:11;;;;;;;;;;;;;;;;;;5072444;28;19929;-76
2023/09/06 09:43:38;;;;;;;;;;;;;;;;;;5072388;28;20399;-76
2023/09/06 09:46:06;;;;;;;;;;;;;;;;;;5073791;28;19924;-76
2023/09/06 09:48:33;;;;;;;;;;;;;;;;;;5066326;28;20341;-76
2023/09/06 09:51:04;;;;;;;;;;;;;;;;;;5071996;28;19924;-75
2023/09/06 09:53:31;;;;;;;;;;;;;;;;;;5072403;28;20327;-74
2023/09/06 09:55:58;;;;;;;;;;;;;;;;;;5067786;28;19932;-74
2023/09/06 09:58:25;;;;;;;;;;;;;;;;;;5068222;28;20368;-76
2023/09/06 10:00:52;;;;;;;;;;;;;;;;;;5065586;28;20290;-76
2023/09/06 10:03:19;;;;;;;;;;;;;;;;;;5071087;28;19963;-76
2023/09/06 10:05:46;;;;;;;;;;;;;;;;;;5070526;28;20388;-75
2023/09/06 10:08:13;;;;;;;;;;;;;;;;;;5071574;28;20000;-76
2023/09/06 10:10:40;;;;;;;;;;;;;;;;;;5066876;28;19932;-76
2023/09/06 10:13:08;;;;;;;;;;;;;;;;;;5069761;28;19925;-77
2023/09/06 10:15:35;;;;;;;;;;;;;;;;;;5053441;28;19924;-73
2023/09/06 10:18:03;;;;;;;;;;;;;;;;;;5067816;28;20549;-73
2023/09/06 10:20:32;;;;;;;;;;;;;;;;;;5072023;28;19928;-73
2023/09/06 10:22:59;;;;;;;;;;;;;;;;;;5065641;28;19932;-72
2023/09/06 10:25:26;;;;;;;;;;;;;;;;;;5065906;28;19994;-73
2023/09/06 10:27:54;;;;;;;;;;;;;;;;;;5076560;28;20418;-72
2023/09/06 10:30:21;;;;;;;;;;;;;;;;;;5081952;28;20363;-73
2023/09/06 10:32:48;;;;;;;;;;;;;;;;;;5071710;28;20021;-74
2023/09/06 10:35:15;;;;;;;;;;;;;;;;;;5068986;28;19932;-73
2023/09/06 10:37:42;;;;;;;;;;;;;;;;;;5071078;28;19932;-74
2023/09/06 10:40:12;;;;;;;;;;;;;;;;;;5066539;28;19924;-74
2023/09/06 10:42:39;;;;;;;;;;;;;;;;;;5064037;28;19964;-74
2023/09/06 10:45:05;;;;;;;;;;;;;;;;;;5070426;28;19933;-71
2023/09/06 10:47:33;;;;;;;;;;;;;;;;;;5070595;28;19985;-71
2023/09/06 10:50:00;;;;;;;;;;;;;;;;;;5073736;28;19925;-73
2023/09/06 10:52:27;;;;;;;;;;;;;;;;;;5089496;28;19955;-72
2023/09/06 10:54:54;;;;;;;;;;;;;;;;;;5072106;28;19932;-72
2023/09/06 10:57:22;;;;;;;;;;;;;;;;;;5068691;28;19978;-74
2023/09/06 10:59:49;;;;;;;;;;;;;;;;;;5059523;28;20406;-73
2023/09/06 11:02:16;;;;;;;;;;;;;;;;;;5064508;28;20010;-71
2023/09/06 11:04:43;;;;;;;;;;;;;;;;;;5074781;28;19978;-74
2023/09/06 11:07:13;;;;;;;;;;;;;;;;;;5067890;28;20370;-71
2023/09/06 11:09:43;;;;;;;;;;;;;;;;;;5058192;28;20371;-73
2023/09/06 11:12:10;;;;;;;;;;;;;;;;;;5065209;28;19967;-72
2023/09/06 11:14:37;;;;;;;;;;;;;;;;;;5082639;28;19932;-71
2023/09/06 11:17:04;;;;;;;;;;;;;;;;;;5067238;28;19924;-71
2023/09/06 11:19:31;;;;;;;;;;;;;;;;;;5066823;28;19924;-73
2023/09/06 11:21:58;;;;;;;;;;;;;;;;;;5083060;28;20040;-75
2023/09/06 11:24:31;;;;;;;;;;;;;;;;;;5080401;28;19958;-73
2023/09/06 11:27:00;;;;;;;;;;;;;;;;;;5061801;28;20035;-72
2023/09/06 11:29:27;;;;;;;;;;;;;;;;;;5069977;28;19946;-71
2023/09/06 11:31:56;;;;;;;;;;;;;;;;;;5072970;28;19939;-70
2023/09/06 11:34:30;;;;;;;;;;;;;;;;;;5072710;28;19930;-72
2023/09/06 11:36:58;;;;;;;;;;;;;;;;;;5074125;28;19925;-73
2023/09/06 11:39:28;;;;;;;;;;;;;;;;;;5064805;28;19932;-74
2023/09/06 11:41:56;;;;;;;;;;;;;;;;;;5075586;28;20375;-72
2023/09/06 11:44:23;;;;;;;;;;;;;;;;;;5072543;28;19924;-71
2023/09/06 11:46:55;;;;;;;;;;;;;;;;;;5064492;28;20611;-72
2023/09/06 11:49:24;;;;;;;;;;;;;;;;;;5066673;28;19973;-72
2023/09/06 11:51:53;;;;;;;;;;;;;;;;;;5066611;28;19992;-70
2023/09/06 11:54:26;;;;;;;;;;;;;;;;;;5071123;28;19935;-71
2023/09/06 11:56:54;;;;;;;;;;;;;;;;;;5069457;28;20015;-71
2023/09/06 11:59:21;;;;;;;;;;;;;;;;;;5073779;28;19925;-73
2023/09/06 12:01:52;;;;;;;;;;;;;;;;;;5070946;28;19924;-73
2023/09/06 12:04:21;;;;;;;;;;;;;;;;;;5069860;28;19925;-73
2023/09/06 12:06:51;;;;;;;;;;;;;;;;;;5072164;28;20379;-73
2023/09/06 12:09:18;;;;;;;;;;;;;;;;;;5073363;28;19931;-73
2023/09/06 12:11:45;;;;;;;;;;;;;;;;;;5073530;28;20396;-73
2023/09/06 12:14:12;;;;;;;;;;;;;;;;;;5071875;28;19932;-73
2023/09/06 12:16:39;;;;;;;;;;;;;;;;;;5066059;28;19932;-73
2023/09/06 12:19:07;;;;;;;;;;;;;;;;;;5069451;28;20406;-73
2023/09/06 12:21:34;;;;;;;;;;;;;;;;;;5070273;28;19986;-74
2023/09/06 12:24:01;;;;;;;;;;;;;;;;;;5071340;28;19928;-74
2023/09/06 12:26:28;;;;;;;;;;;;;;;;;;5069819;28;19924;-73
2023/09/06 12:28:55;;;;;;;;;;;;;;;;;;5066186;28;19924;-73
2023/09/06 12:31:22;;;;;;;;;;;;;;;;;;5068305;28;19986;-73
2023/09/06 12:33:51;;;;;;;;;;;;;;;;;;5070288;28;19928;-73
2023/09/06 12:36:18;;;;;;;;;;;;;;;;;;5071323;28;19924;-73
2023/09/06 12:38:45;;;;;;;;;;;;;;;;;;5072857;28;19935;-73
2023/09/06 12:41:12;;;;;;;;;;;;;;;;;;5069330;28;19968;-73
2023/09/06 12:43:39;;;;;;;;;;;;;;;;;;5071533;28;20482;-73
2023/09/06 12:46:11;;;;;;;;;;;;;;;;;;5068674;28;20035;-74
2023/09/06 12:48:38;;;;;;;;;;;;;;;;;;5051958;28;19924;-74
2023/09/06 12:51:07;;;;;;;;;;;;;;;;;;5068177;28;19932;-74
2023/09/06 12:53:34;;;;;;;;;;;;;;;;;;5065962;28;19936;-74
2023/09/06 12:56:01;;;;;;;;;;;;;;;;;;5058085;28;20524;-74
2023/09/06 12:58:28;;;;;;;;;;;;;;;;;;5070376;28;20291;-73
2023/09/06 13:00:57;;;;;;;;;;;;;;;;;;5069771;28;19972;-73
2023/09/06 13:03:24;;;;;;;;;;;;;;;;;;5072763;28;20207;-72
2023/09/06 13:05:51;;;;;;;;;;;;;;;;;;5073128;28;20269;-72
2023/09/06 13:08:18;;;;;;;;;;;;;;;;;;5072420;28;19978;-72
2023/09/06 13:10:45;;;;;;;;;;;;;;;;;;5071593;28;19928;-73
2023/09/06 13:13:12;;;;;;;;;;;;;;;;;;5070498;28;19970;-72
2023/09/06 13:15:39;;;;;;;;;;;;;;;;;;5064094;28;19933;-73
2023/09/06 13:18:06;;;;;;;;;;;;;;;;;;5063984;28;20011;-73
2023/09/06 13:20:33;;;;;;;;;;;;;;;;;;5076805;28;20025;-73
2023/09/06 13:23:01;;;;;;;;;;;;;;;;;;5088481;28;19925;-74
2023/09/06 13:25:28;;;;;;;;;;;;;;;;;;5073802;28;20379;-74
2023/09/06 13:27:55;;;;;;;;;;;;;;;;;;5060376;28;19979;-74
2023/09/06 13:30:22;;;;;;;;;;;;;;;;;;5070281;28;19928;-74
2023/09/06 13:32:49;;;;;;;;;;;;;;;;;;5077811;28;19926;-74
2023/09/06 13:35:16;;;;;;;;;;;;;;;;;;5068006;28;19993;-73
2023/09/06 13:37:43;;;;;;;;;;;;;;;;;;5082478;28;19928;-74
2023/09/06 13:40:11;;;;;;;;;;;;;;;;;;5074883;28;19928;-74
2023/09/06 13:42:38;;;;;;;;;;;;;;;;;;5072875;28;19943;-73
2023/09/06 13:45:05;;;;;;;;;;;;;;;;;;5072037;28;19966;-74
2023/09/06 13:47:32;;;;;;;;;;;;;;;;;;5069554;28;20401;-73
2023/09/06 13:49:59;;;;;;;;;;;;;;;;;;5069668;28;20045;-74
2023/09/06 13:52:26;;;;;;;;;;;;;;;;;;5068885;28;20015;-73
2023/09/06 13:54:53;;;;;;;;;;;;;;;;;;5067113;28;19932;-73
2023/09/06 13:57:20;;;;;;;;;;;;;;;;;;5071271;28;20349;-73
2023/09/06 13:59:47;;;;;;;;;;;;;;;;;;5070107;28;19970;-72
2023/09/06 14:02:15;;;;;;;;;;;;;;;;;;5069814;28;20385;-72
2023/09/06 14:04:42;;;;;;;;;;;;;;;;;;5069666;28;19960;-73
2023/09/06 14:07:09;;;;;;;;;;;;;;;;;;5070124;28;19924;-73
2023/09/06 14:09:36;;;;;;;;;;;;;;;;;;5071662;28;19924;-74
2023/09/06 14:12:03;;;;;;;;;;;;;;;;;;5065443;28;19925;-75
2023/09/06 14:14:30;;;;;;;;;;;;;;;;;;5060195;28;19994;-73
2023/09/06 14:16:57;;;;;;;;;;;;;;;;;;5068784;28;20021;-73
2023/09/06 14:19:25;;;;;;;;;;;;;;;;;;5065455;28;19986;-73
2023/09/06 14:21:52;;;;;;;;;;;;;;;;;;5065647;28;19993;-66
2023/09/06 14:24:19;;;;;;;;;;;;;;;;;;5059563;28;19925;-66
2023/09/06 14:26:47;;;;;;;;;;;;;;;;;;5056984;28;19964;-66
2023/09/06 14:29:14;;;;;;;;;;;;;;;;;;5054253;28;20028;-66
2023/09/06 14:31:41;;;;;;;;;;;;;;;;;;5054070;28;19924;-65
2023/09/06 14:34:08;;;;;;;;;;;;;;;;;;5058002;28;19925;-73
2023/09/06 14:36:36;;;;;;;;;;;;;;;;;;5064306;28;20439;-71
2023/09/06 14:39:03;;;;;;;;;;;;;;;;;;5062061;28;19929;-72
2023/09/06 14:41:30;;;;;;;;;;;;;;;;;;5054450;28;19932;-73
2023/09/06 14:43:57;;;;;;;;;;;;;;;;;;5057208;28;19929;-73
2023/09/06 14:46:24;;;;;;;;;;;;;;;;;;5053382;28;19933;-73
2023/09/06 14:48:51;;;;;;;;;;;;;;;;;;5053139;28;19932;-73
2023/09/06 14:51:18;;;;;;;;;;;;;;;;;;5052749;28;19932;-73
2023/09/06 14:53:45;;;;;;;;;;;;;;;;;;5052526;28;19939;-73
2023/09/06 14:56:13;;;;;;;;;;;;;;;;;;5059159;28;20249;-73
2023/09/06 14:58:40;;;;;;;;;;;;;;;;;;5063579;28;20416;-73
2023/09/06 15:01:07;;;;;;;;;;;;;;;;;;5061480;28;19953;-73
2023/09/06 15:03:34;;;;;;;;;;;;;;;;;;5061129;28;19932;-73
2023/09/06 15:06:01;;;;;;;;;;;;;;;;;;5056752;28;19972;-73
2023/09/06 15:08:28;;;;;;;;;;;;;;;;;;5058608;28;19929;-74
2023/09/06 15:10:56;;;;;;;;;;;;;;;;;;5062822;28;19925;-73
2023/09/06 15:13:23;;;;;;;;;;;;;;;;;;5061838;28;19925;-73
2023/09/06 15:15:51;;;;;;;;;;;;;;;;;;5061186;28;19925;-74
2023/09/06 15:18:18;;;;;;;;;;;;;;;;;;5065581;28;19928;-73
2023/09/06 15:20:45;;;;;;;;;;;;;;;;;;5069002;28;19932;-73
2023/09/06 15:23:13;;;;;;;;;;;;;;;;;;5065630;28;20325;-73
2023/09/06 15:25:41;;;;;;;;;;;;;;;;;;5058247;28;19952;-74
2023/09/06 15:28:08;;;;;;;;;;;;;;;;;;5059936;28;19956;-73
2023/09/06 15:30:35;;;;;;;;;;;;;;;;;;5056026;28;19932;-73
2023/09/06 15:33:02;;;;;;;;;;;;;;;;;;5059848;28;19978;-74
2023/09/06 15:35:29;;;;;;;;;;;;;;;;;;5063793;28;19963;-73
2023/09/06 15:37:57;;;;;;;;;;;;;;;;;;5063150;28;19928;-73
2023/09/06 15:40:24;;;;;;;;;;;;;;;;;;5058757;28;20517;-73
2023/09/06 15:42:51;;;;;;;;;;;;;;;;;;5056258;28;20847;-74
2023/09/06 15:45:19;;;;;;;;;;;;;;;;;;5055867;28;19928;-74
2023/09/06 15:47:47;;;;;;;;;;;;;;;;;;5058098;28;19932;-73
2023/09/06 15:50:15;;;;;;;;;;;;;;;;;;5058218;28;19925;-73
2023/09/06 15:52:42;;;;;;;;;;;;;;;;;;5062457;28;19931;-73
2023/09/06 15:55:09;;;;;;;;;;;;;;;;;;5059360;28;19979;-73
2023/09/06 15:57:37;;;;;;;;;;;;;;;;;;5055691;28;19924;-73
2023/09/06 16:00:08;;;;;;;;;;;;;;;;;;5059501;28;19975;-73
2023/09/06 16:02:35;;;;;;;;;;;;;;;;;;5057007;28;20023;-74
2023/09/06 16:05:02;;;;;;;;;;;;;;;;;;5056169;28;19943;-74
2023/09/06 16:07:29;;;;;;;;;;;;;;;;;;5051942;28;19968;-74
2023/09/06 16:09:56;;;;;;;;;;;;;;;;;;5060826;28;19985;-73
2023/09/06 16:12:23;;;;;;;;;;;;;;;;;;5059360;28;19931;-74
2023/09/06 16:14:52;;;;;;;;;;;;;;;;;;5055818;28;19928;-72
2023/09/06 16:17:19;;;;;;;;;;;;;;;;;;5057728;28;20005;-73
2023/09/06 16:19:47;;;;;;;;;;;;;;;;;;5058558;28;20312;-73
2023/09/06 16:22:15;;;;;;;;;;;;;;;;;;5056782;28;19937;-73
2023/09/06 16:24:42;;;;;;;;;;;;;;;;;;5056778;28;19924;-73
2023/09/06 16:27:09;;;;;;;;;;;;;;;;;;5064259;28;19956;-70
2023/09/06 16:29:36;;;;;;;;;;;;;;;;;;5058931;28;19981;-73
2023/09/06 16:32:05;;;;;;;;;;;;;;;;;;5053956;28;19925;-69
2023/09/06 16:34:32;;;;;;;;;;;;;;;;;;5057447;28;21213;-73
2023/09/06 16:37:03;;;;;;;;;;;;;;;;;;5057196;28;19936;-73
2023/09/06 16:39:31;;;;;;;;;;;;;;;;;;5062535;28;20453;-73
2023/09/06 16:41:59;;;;;;;;;;;;;;;;;;5057524;28;20374;-72
2023/09/06 16:44:26;;;;;;;;;;;;;;;;;;5059598;28;19936;-72
2023/09/06 16:46:53;;;;;;;;;;;;;;;;;;5061474;28;19933;-71